WetterOnline ( https://www.wetteronline.de )

Wetter aktuell Mont Gravieres

Aktuelles Wetter: Nizza (27m)

6-stündlich | Neueste Meldungen
Ortszeit Temperatur Wetter
Fr, 23.10. 20:00 16.8° C bewölkt
Fr, 23.10. 14:00 16.3° C bewölkt
Fr, 23.10. 8:00 17.7° C wolkig
Fr, 23.10. 2:00 17.2° C wolkig
Do, 22.10. 20:00 19.7° C leicht bewölkt
Do, 22.10. 14:00 20.4° C wolkig
Do, 22.10. 8:00 16.2° C wolkig
Do, 22.10. 2:00 16.1° C wolkig
Ortszeit Temperatur Wetter
Sa, 24.10. 0:00 15° C leicht bewölkt
Fr, 23.10. 23:30 15° C leicht bewölkt
Fr, 23.10. 23:00 15.4° C fast wolkenlos
Fr, 23.10. 22:30 16° C leicht bewölkt
Fr, 23.10. 22:00 15.9° C leicht bewölkt
Fr, 23.10. 21:30 16° C leicht bewölkt
Fr, 23.10. 21:00 16.4° C wolkig
Fr, 23.10. 20:30 17° C bewölkt
Ortszeit Relative Feuchte Sichtweite
Fr, 23.10. 20:00 85% 20 km
Fr, 23.10. 14:00 89% 30 km
Fr, 23.10. 8:00 71% 40 km
Fr, 23.10. 2:00 76% 30 km
Do, 22.10. 20:00 81% 20 km
Do, 22.10. 14:00 65% 50 km
Do, 22.10. 8:00 72% 50 km
Do, 22.10. 2:00 76% 18 km
Ortszeit Relative Feuchte Sichtweite
Sa, 24.10. 0:00 88% >10 km
Fr, 23.10. 23:30 88% >10 km
Fr, 23.10. 23:00 88% 30 km
Fr, 23.10. 22:30 88% >10 km
Fr, 23.10. 22:00 88% 30 km
Fr, 23.10. 21:30 88% >10 km
Fr, 23.10. 21:00 85% 30 km
Fr, 23.10. 20:30 83% >10 km
Ortszeit Niederschlagsmenge Niederschlagsart
Fr, 23.10. 20:00 4 l/m2 in 12 Std. Regen
Fr, 23.10. 14:00 3 l/m2 in 6 Std. Regen
Fr, 23.10. 8:00 0.2 l/m2 in 12 Std. Regen
Fr, 23.10. 2:00 0.0 l/m2 in 6 Std. -
Do, 22.10. 20:00 0.0 l/m2 in 12 Std. -
Do, 22.10. 14:00 0.0 l/m2 in 6 Std. -
Do, 22.10. 8:00 0.0 l/m2 in 12 Std. -
Do, 22.10. 2:00 0.0 l/m2 in 6 Std. -
Ortszeit Niederschlagsmenge Niederschlagsart
Sa, 24.10. 0:00 keine Meldung -
Fr, 23.10. 23:30 keine Meldung -
Fr, 23.10. 23:00 keine Meldung -
Fr, 23.10. 22:30 keine Meldung -
Fr, 23.10. 22:00 0.0 l/m2 in 1 Std. -
Fr, 23.10. 21:30 keine Meldung -
Fr, 23.10. 21:00 0.0 l/m2 in 1 Std. -
Fr, 23.10. 20:30 keine Meldung -
Ortszeit Stärke Spitze Richtung
km/h Bft. km/h Grad Sektor
Fr, 23.10. 20:00 15 3 20 320° NW
Fr, 23.10. 14:00 9 2 24 340° N
Fr, 23.10. 8:00 9 2 24 360° N
Fr, 23.10. 2:00 11 2 17 330° NW
Do, 22.10. 20:00 33 5 43 80° O
Do, 22.10. 14:00 7 2 9 100° O
Do, 22.10. 8:00 13 3 20 330° NW
Do, 22.10. 2:00 9 2 43 340° N
Ortszeit Stärke Spitze Richtung
km/h Bft. km/h Grad Sektor
Sa, 24.10. 0:00 15 3 - 320° NW
Fr, 23.10. 23:30 17 3 - 320° NW
Fr, 23.10. 23:00 15 3 22 320° NW
Fr, 23.10. 22:30 17 3 - 320° NW
Fr, 23.10. 22:00 15 3 20 320° NW
Fr, 23.10. 21:30 11 2 - 320° NW
Fr, 23.10. 21:00 13 3 22 330° NW
Fr, 23.10. 20:30 13 3 - 310° NW
Ortszeit Untergrenze Bedeckung Gattung
total tief tief mittel hoch
Fr, 23.10. 20:00 720 m 7/8 7/8 Sc - -
Fr, 23.10. 14:00 1080 m 8/8 5/8 Sc As -
Fr, 23.10. 8:00 3300 m 8/8 7/8 - As -
Fr, 23.10. 2:00 3600 m 8/8 7/8 - As -
Do, 22.10. 20:00 3900 m 7/8 5/8 - Ac Ci
Do, 22.10. 14:00 1800 m 7/8 1/8 Sc Ac -
Do, 22.10. 8:00 1800 m 8/8 1/8 Sc Ac Ci
Do, 22.10. 2:00 690 m 8/8 2/8 Sc Ac -
Ortszeit Bedeckungsgrad in Achtel und Wolkenuntergrenze
Sa, 24.10. 0:00 1-2(900m)
Fr, 23.10. 23:30 1-2(900m)
Fr, 23.10. 23:00 1(900m)
Fr, 23.10. 22:30 1-2(900m) 3-4(8100m)
Fr, 23.10. 22:00 1(900m) 3(3300m) 5(8100m)
Fr, 23.10. 21:30 1-2(900m) 3-4(3300m) 7(8100m)
Fr, 23.10. 21:00 2(900m) 3(2400m) 5(3300m)
Fr, 23.10. 20:30 1-2(900m) 3-4(2400m) 7(3300m)
Ortszeit Luftdruck NN (hPa) Tendenz (hPa in 3 Std.)
Fr, 23.10. 20:00 1018 + 0,5
Fr, 23.10. 14:00 1019 - 0,8
Fr, 23.10. 8:00 1019 - 1,1
Fr, 23.10. 2:00 1021 - 0,2
Do, 22.10. 20:00 1021 + 0,7
Do, 22.10. 14:00 1022 - 0,9
Do, 22.10. 8:00 1022 - 0,2
Do, 22.10. 2:00 1022 - 0,3
Ortszeit Luftdruck NN (hPa) Tendenz (hPa in 3 Std.)
Sa, 24.10. 0:00 1018 keine Meldung
Fr, 23.10. 23:30 1018 keine Meldung
Fr, 23.10. 23:00 1018 - 0,4
Fr, 23.10. 22:30 1018 keine Meldung
Fr, 23.10. 22:00 1018 0,0
Fr, 23.10. 21:30 1017 keine Meldung
Fr, 23.10. 21:00 1018 + 0,3
Fr, 23.10. 20:30 1018 keine Meldung
Ortszeit Schneehöhe (cm)
Fr, 23.10. 20:00 -
Fr, 23.10. 14:00 -
Fr, 23.10. 8:00 -
Fr, 23.10. 2:00 -
Do, 22.10. 20:00 -
Do, 22.10. 14:00 -
Do, 22.10. 8:00 -
Do, 22.10. 2:00 -
Ortszeit Schneehöhe (cm)
Sa, 24.10. 0:00 -
Fr, 23.10. 23:30 -
Fr, 23.10. 23:00 -
Fr, 23.10. 22:30 -
Fr, 23.10. 22:00 -
Fr, 23.10. 21:30 -
Fr, 23.10. 21:00 -
Fr, 23.10. 20:30 -
Link zu dieser Seite / Seite empfehlen

Das Wetter in ...